Time;durP1;ratioP1;P1;durP2;ratioP2;P2;SDS_P1;SDS_P2;PMS_P1;PMS_P2;Temp;Humidity;BMP_temperature;BMP_pressure;BME280_temperature;BME280_humidity;BME280_pressure;Samples;Min_cycle;Max_cycle;Signal;HPM_P1;HPM_P2
2021/12/09 00:01:33;;;;;;;16.10;12.10;;;4.50;99.90;;;;;;5046390;28;20503;-66
2021/12/09 00:04:05;;;;;;;21.03;12.07;;;4.50;99.90;;;;;;5064061;28;20523;-64
2021/12/09 00:06:34;;;;;;;18.63;13.50;;;4.50;99.90;;;;;;5067512;28;20538;-65
2021/12/09 00:09:05;;;;;;;20.73;13.17;;;4.50;99.90;;;;;;5067791;28;20545;-66
2021/12/09 00:11:34;;;;;;;20.47;13.67;;;4.50;99.90;;;;;;5067766;28;20467;-65
2021/12/09 00:14:01;;;;;;;20.90;14.87;;;4.50;99.90;;;;;;5067726;28;20477;-65
2021/12/09 00:16:28;;;;;;;19.90;13.97;;;4.50;99.90;;;;;;5066305;28;20540;-65
2021/12/09 00:18:55;;;;;;;25.00;13.50;;;4.60;99.90;;;;;;5067785;28;20537;-68
2021/12/09 00:21:23;;;;;;;21.37;11.40;;;4.60;99.90;;;;;;5067620;28;20490;-64
2021/12/09 00:23:50;;;;;;;17.13;10.90;;;4.60;99.90;;;;;;5067350;28;20541;-64
2021/12/09 00:26:17;;;;;;;16.20;10.20;;;4.60;99.90;;;;;;5067834;28;20447;-65
2021/12/09 00:28:45;;;;;;;14.80;9.73;;;4.50;99.90;;;;;;5067972;28;20461;-65
2021/12/09 00:31:12;;;;;;;14.30;8.70;;;4.50;99.90;;;;;;5067812;28;20472;-67
2021/12/09 00:33:44;;;;;;;13.67;9.47;;;4.50;99.90;;;;;;5067835;28;20458;-64
2021/12/09 00:36:11;;;;;;;14.80;7.40;;;4.40;99.90;;;;;;5068513;28;20459;-65
2021/12/09 00:38:41;;;;;;;14.20;7.87;;;4.40;99.90;;;;;;5068880;28;20455;-66
2021/12/09 00:41:12;;;;;;;11.67;7.50;;;4.40;99.90;;;;;;5069014;28;20502;-67
2021/12/09 00:43:40;;;;;;;10.00;6.57;;;4.40;99.90;;;;;;5067686;28;20470;-65
2021/12/09 00:46:08;;;;;;;12.20;7.97;;;4.40;99.90;;;;;;5067245;28;20447;-66
2021/12/09 00:48:35;;;;;;;11.97;7.23;;;4.40;99.90;;;;;;5067365;28;20453;-66
2021/12/09 00:51:04;;;;;;;12.13;7.43;;;4.40;99.90;;;;;;5067285;28;20462;-66
2021/12/09 00:53:31;;;;;;;10.83;7.27;;;4.30;99.90;;;;;;5067282;28;20447;-68
2021/12/09 00:55:59;;;;;;;8.83;6.10;;;4.30;99.90;;;;;;5067444;28;20447;-64
2021/12/09 00:58:26;;;;;;;10.60;7.13;;;4.30;99.90;;;;;;5067225;28;20461;-64
2021/12/09 01:00:53;;;;;;;10.67;6.50;;;4.30;99.90;;;;;;5067031;28;20490;-68
2021/12/09 01:03:20;;;;;;;11.07;6.93;;;4.30;99.90;;;;;;5067353;28;20525;-66
2021/12/09 01:05:47;;;;;;;11.70;6.60;;;4.30;99.90;;;;;;5067593;28;20457;-66
2021/12/09 01:08:14;;;;;;;11.30;6.20;;;4.20;99.90;;;;;;5067106;28;21207;-65
2021/12/09 01:10:41;;;;;;;9.73;6.50;;;4.10;99.90;;;;;;5067297;28;20479;-66
2021/12/09 01:13:10;;;;;;;9.53;5.27;;;4.10;99.90;;;;;;5067458;28;20450;-64
2021/12/09 01:15:37;;;;;;;8.70;5.90;;;4.10;99.90;;;;;;5067468;28;20462;-67
2021/12/09 01:18:06;;;;;;;7.10;4.90;;;4.00;99.90;;;;;;5066588;28;21022;-64
2021/12/09 01:20:33;;;;;;;10.50;5.67;;;3.90;99.90;;;;;;5067320;28;20489;-66
2021/12/09 01:23:02;;;;;;;6.83;4.47;;;3.90;99.90;;;;;;5067275;28;20456;-65
2021/12/09 01:25:32;;;;;;;8.97;6.00;;;3.90;99.90;;;;;;5069111;28;20542;-65
2021/12/09 01:27:59;;;;;;;10.93;4.87;;;3.90;99.90;;;;;;5068434;28;20539;-64
2021/12/09 01:30:27;;;;;;;7.93;5.80;;;4.00;99.90;;;;;;5070600;28;21017;-66
2021/12/09 01:32:55;;;;;;;6.63;5.00;;;4.00;99.90;;;;;;5070182;28;20446;-65
2021/12/09 01:35:26;;;;;;;9.43;5.80;;;4.10;99.90;;;;;;5070858;28;20551;-65
2021/12/09 01:37:56;;;;;;;8.80;5.40;;;4.20;99.90;;;;;;5070765;28;20444;-65
2021/12/09 01:40:23;;;;;;;10.43;5.60;;;4.20;99.90;;;;;;5070848;28;20490;-65
2021/12/09 01:42:51;;;;;;;10.87;6.23;;;4.20;99.90;;;;;;5071117;28;20461;-66
2021/12/09 01:45:18;;;;;;;12.73;5.70;;;4.20;99.90;;;;;;5071286;28;20450;-65
2021/12/09 01:47:47;;;;;;;12.10;7.33;;;4.20;99.90;;;;;;5070983;28;20460;-66
2021/12/09 01:50:14;;;;;;;12.43;7.27;;;4.30;99.90;;;;;;5070939;28;20458;-65
2021/12/09 01:52:42;;;;;;;10.80;6.67;;;4.20;99.90;;;;;;5070453;28;20446;-66
2021/12/09 01:55:10;;;;;;;10.43;7.37;;;4.20;99.90;;;;;;5070160;28;20857;-66
2021/12/09 01:57:37;;;;;;;11.13;6.27;;;4.20;99.90;;;;;;5070074;28;20450;-65
2021/12/09 02:00:07;;;;;;;11.73;7.97;;;4.30;99.90;;;;;;5070171;28;20474;-65
2021/12/09 02:02:34;;;;;;;10.87;7.60;;;4.30;99.90;;;;;;5070560;28;20810;-65
2021/12/09 02:05:02;;;;;;;17.17;7.20;;;4.30;99.90;;;;;;5070108;28;20810;-64
2021/12/09 02:07:29;;;;;;;10.10;6.83;;;4.30;99.90;;;;;;5070150;28;20456;-64
2021/12/09 02:09:56;;;;;;;15.37;7.30;;;4.30;99.90;;;;;;5069930;28;20977;-65
2021/12/09 02:12:23;;;;;;;9.20;7.37;;;4.20;99.90;;;;;;5070047;28;20454;-65
2021/12/09 02:14:52;;;;;;;15.30;7.67;;;4.30;99.90;;;;;;5069852;28;20446;-66
2021/12/09 02:17:20;;;;;;;11.73;7.10;;;4.30;99.90;;;;;;5069504;28;20821;-64
2021/12/09 02:19:48;;;;;;;13.63;8.50;;;4.30;99.90;;;;;;5069785;28;20568;-66
2021/12/09 02:22:16;;;;;;;8.30;6.70;;;4.30;99.90;;;;;;5069315;28;20518;-64
2021/12/09 02:24:43;;;;;;;11.47;8.20;;;4.30;99.90;;;;;;5069745;28;20497;-65
2021/12/09 02:27:11;;;;;;;9.87;6.83;;;4.30;99.90;;;;;;5069466;28;20452;-66
2021/12/09 02:29:39;;;;;;;10.10;6.50;;;4.30;99.90;;;;;;5069634;28;20494;-66
2021/12/09 02:32:06;;;;;;;11.83;6.20;;;4.30;99.90;;;;;;5069444;28;20451;-65
2021/12/09 02:34:33;;;;;;;14.67;6.37;;;4.30;99.90;;;;;;5069532;28;20455;-66
2021/12/09 02:37:01;;;;;;;15.20;6.47;;;4.30;99.90;;;;;;5067737;28;20450;-67
2021/12/09 02:39:29;;;;;;;7.97;5.53;;;4.20;99.90;;;;;;5069556;28;20451;-65
2021/12/09 02:41:56;;;;;;;10.70;6.83;;;4.20;99.90;;;;;;5069485;28;20581;-66
2021/12/09 02:44:23;;;;;;;10.53;5.60;;;4.30;99.90;;;;;;5069196;28;20456;-67
2021/12/09 02:46:53;;;;;;;10.80;5.60;;;4.30;99.90;;;;;;5068880;28;20451;-70
2021/12/09 02:49:21;;;;;;;11.97;5.00;;;4.30;99.90;;;;;;5068966;28;20477;-65
2021/12/09 02:51:51;;;;;;;11.23;6.37;;;4.20;99.90;;;;;;5069110;28;21235;-65
2021/12/09 02:54:20;;;;;;;10.43;6.43;;;4.30;99.90;;;;;;5068837;28;21039;-65
2021/12/09 02:56:51;;;;;;;16.53;8.17;;;4.20;99.90;;;;;;5068998;28;20940;-66
2021/12/09 02:59:19;;;;;;;11.73;7.07;;;4.20;99.90;;;;;;5068775;28;20606;-65
2021/12/09 03:01:57;;;;;;;16.47;8.00;;;4.20;99.90;;;;;;5068722;28;20479;-66
2021/12/09 03:04:24;;;;;;;13.50;8.37;;;4.20;99.90;;;;;;5068965;28;20478;-67
2021/12/09 03:06:53;;;;;;;13.00;9.60;;;4.20;99.90;;;;;;5068625;28;20542;-66
2021/12/09 03:09:22;;;;;;;14.77;8.20;;;4.30;99.90;;;;;;5068873;28;20462;-65
2021/12/09 03:11:55;;;;;;;18.13;8.63;;;4.20;99.90;;;;;;5068779;28;20450;-64
2021/12/09 03:14:23;;;;;;;11.03;6.80;;;4.20;99.90;;;;;;5068749;28;20505;-66
2021/12/09 03:16:51;;;;;;;11.80;7.47;;;4.20;99.90;;;;;;5068459;28;20447;-66
2021/12/09 03:19:18;;;;;;;12.87;8.53;;;4.20;99.90;;;;;;5068871;28;20450;-65
2021/12/09 03:21:46;;;;;;;12.90;7.60;;;4.20;99.90;;;;;;5068582;28;20973;-65
2021/12/09 03:24:15;;;;;;;10.53;6.90;;;4.20;99.90;;;;;;5068687;28;20469;-65
2021/12/09 03:26:45;;;;;;;12.43;7.47;;;4.20;99.90;;;;;;5068094;28;20451;-64
2021/12/09 03:29:15;;;;;;;12.67;8.50;;;4.10;99.90;;;;;;5068270;28;20436;-64
2021/12/09 03:31:45;;;;;;;12.97;7.90;;;4.20;99.90;;;;;;5068295;28;20846;-64
2021/12/09 03:34:14;;;;;;;17.03;9.53;;;4.10;99.90;;;;;;5068364;28;20965;-65
2021/12/09 03:36:42;;;;;;;13.77;6.90;;;4.10;99.90;;;;;;5067812;28;20455;-66
2021/12/09 03:39:13;;;;;;;13.93;7.97;;;4.10;99.90;;;;;;5068211;28;21145;-67
2021/12/09 03:41:41;;;;;;;15.50;7.20;;;4.20;99.90;;;;;;5068012;28;20486;-64
2021/12/09 03:44:08;;;;;;;9.57;7.20;;;4.20;99.90;;;;;;5068200;28;20457;-64
2021/12/09 03:46:37;;;;;;;14.13;7.30;;;4.20;99.90;;;;;;5067886;28;21090;-66
2021/12/09 03:49:05;;;;;;;10.90;6.67;;;4.10;99.90;;;;;;5067941;28;20847;-65
2021/12/09 03:51:32;;;;;;;13.50;7.87;;;4.10;99.90;;;;;;5067909;28;20971;-64
2021/12/09 03:53:58;;;;;;;17.57;8.07;;;4.10;99.90;;;;;;5068111;28;21042;-65
2021/12/09 03:56:25;;;;;;;12.27;6.83;;;4.10;99.90;;;;;;5068113;28;20854;-66
2021/12/09 03:58:52;;;;;;;15.97;9.17;;;4.10;99.90;;;;;;5068242;28;20453;-64
2021/12/09 04:01:19;;;;;;;10.77;7.50;;;4.10;99.90;;;;;;5068186;28;20494;-64
2021/12/09 04:03:47;;;;;;;12.00;7.47;;;4.10;99.90;;;;;;5068039;28;20454;-65
2021/12/09 04:06:14;;;;;;;15.50;7.43;;;4.00;99.90;;;;;;5067833;28;20453;-65
2021/12/09 04:08:41;;;;;;;15.90;8.00;;;4.00;99.90;;;;;;5067780;28;20455;-64
2021/12/09 04:11:10;;;;;;;15.67;7.07;;;4.00;99.90;;;;;;5067967;28;21274;-63
2021/12/09 04:13:37;;;;;;;14.17;7.87;;;3.90;99.90;;;;;;5067634;28;21230;-65
2021/12/09 04:16:05;;;;;;;16.70;9.00;;;3.90;99.90;;;;;;5067690;28;20942;-67
2021/12/09 04:18:32;;;;;;;14.47;7.80;;;3.90;99.90;;;;;;5067281;28;20572;-65
2021/12/09 04:21:01;;;;;;;16.63;9.20;;;3.90;99.90;;;;;;5067293;28;20972;-68
2021/12/09 04:23:28;;;;;;;13.20;7.53;;;3.90;99.90;;;;;;5067214;28;20456;-65
2021/12/09 04:25:55;;;;;;;11.93;7.57;;;3.90;99.90;;;;;;5067832;28;20477;-66
2021/12/09 04:28:21;;;;;;;10.73;7.47;;;3.90;99.90;;;;;;5067399;28;20435;-65
2021/12/09 04:30:48;;;;;;;12.97;7.27;;;3.90;99.90;;;;;;5067448;28;21106;-65
2021/12/09 04:33:16;;;;;;;11.23;6.60;;;3.80;99.90;;;;;;5067497;28;20461;-66
2021/12/09 04:35:43;;;;;;;17.03;8.90;;;3.70;99.90;;;;;;5067295;28;20490;-65
2021/12/09 04:38:11;;;;;;;11.23;8.30;;;3.70;99.90;;;;;;5067000;28;20449;-64
2021/12/09 04:40:38;;;;;;;15.43;8.93;;;3.70;99.90;;;;;;5067289;28;20466;-66
2021/12/09 04:43:06;;;;;;;14.70;8.10;;;3.70;99.90;;;;;;5067578;28;20455;-65
2021/12/09 04:45:34;;;;;;;12.07;8.87;;;3.70;99.90;;;;;;5067151;28;20469;-67
2021/12/09 04:48:02;;;;;;;18.20;8.30;;;3.70;99.90;;;;;;5066858;28;20871;-65
2021/12/09 04:50:29;;;;;;;20.13;8.53;;;3.60;99.90;;;;;;5066902;28;20477;-65
2021/12/09 04:52:56;;;;;;;15.50;8.10;;;3.70;99.90;;;;;;5067270;28;20798;-67
2021/12/09 04:55:24;;;;;;;19.27;9.03;;;3.60;99.90;;;;;;5067404;28;20453;-65
2021/12/09 04:57:51;;;;;;;12.30;8.60;;;3.70;99.90;;;;;;5067074;28;20454;-65
2021/12/09 05:00:20;;;;;;;14.00;8.47;;;3.70;99.90;;;;;;5068527;28;20471;-67
2021/12/09 05:03:01;;;;;;;16.90;7.67;;;3.70;99.90;;;;;;5070912;28;20503;-65
2021/12/09 05:05:31;;;;;;;14.40;7.60;;;3.70;99.90;;;;;;5070945;28;20453;-67
2021/12/09 05:07:57;;;;;;;14.40;8.13;;;3.80;99.90;;;;;;5070564;28;20455;-65
2021/12/09 05:10:26;;;;;;;13.40;7.37;;;3.80;99.90;;;;;;5070818;28;20579;-65
2021/12/09 05:12:52;;;;;;;14.37;7.87;;;3.80;99.90;;;;;;5070741;28;20465;-67
2021/12/09 05:15:19;;;;;;;13.53;8.73;;;3.80;99.90;;;;;;5070775;28;20458;-66
2021/12/09 05:17:46;;;;;;;17.30;8.10;;;3.80;99.90;;;;;;5070523;28;20830;-65
2021/12/09 05:20:13;;;;;;;11.40;7.53;;;3.70;99.90;;;;;;5070716;28;20482;-66
2021/12/09 05:22:39;;;;;;;15.90;6.87;;;3.80;99.90;;;;;;5070290;28;20486;-66
2021/12/09 05:25:07;;;;;;;12.53;6.57;;;3.70;99.90;;;;;;5070768;28;20443;-65
2021/12/09 05:27:37;;;;;;;11.70;7.00;;;3.70;99.90;;;;;;5070189;28;20457;-66
2021/12/09 05:30:08;;;;;;;10.93;7.00;;;3.70;99.90;;;;;;5070391;28;20474;-66
2021/12/09 05:32:34;;;;;;;14.40;7.00;;;3.70;99.90;;;;;;5070935;28;20443;-65
2021/12/09 05:35:02;;;;;;;13.37;8.20;;;3.70;99.90;;;;;;5070331;28;20850;-66
2021/12/09 05:37:30;;;;;;;12.03;6.10;;;3.80;99.90;;;;;;5069939;28;20969;-66
2021/12/09 05:39:58;;;;;;;9.77;6.10;;;3.80;99.90;;;;;;5070023;28;20476;-64
2021/12/09 05:42:26;;;;;;;11.60;6.27;;;3.80;99.90;;;;;;5070147;28;20482;-65
2021/12/09 05:44:56;;;;;;;11.17;5.90;;;3.80;99.90;;;;;;5070337;28;20553;-64
2021/12/09 05:47:24;;;;;;;8.50;5.40;;;3.80;99.90;;;;;;5070110;28;20515;-65
2021/12/09 05:49:52;;;;;;;12.17;7.30;;;3.80;99.90;;;;;;5070146;28;20470;-65
2021/12/09 05:52:19;;;;;;;9.60;5.50;;;3.80;99.90;;;;;;5070355;28;20508;-64
2021/12/09 05:54:46;;;;;;;10.07;4.90;;;3.80;99.90;;;;;;5070042;28;20453;-65
2021/12/09 05:57:13;;;;;;;8.13;4.63;;;3.80;99.90;;;;;;5070024;28;20454;-63
2021/12/09 05:59:41;;;;;;;10.60;5.07;;;3.80;99.90;;;;;;5070287;28;20467;-65
2021/12/09 06:02:11;;;;;;;10.47;6.00;;;3.80;99.90;;;;;;5065290;28;20491;-65
2021/12/09 06:04:38;;;;;;;12.57;5.17;;;3.80;99.90;;;;;;5067250;28;20445;-65
2021/12/09 06:07:05;;;;;;;13.80;5.90;;;3.80;99.90;;;;;;5063047;28;20537;-66
2021/12/09 06:09:32;;;;;;;8.87;4.97;;;3.80;99.90;;;;;;5061312;28;20534;-65
2021/12/09 06:11:59;;;;;;;20.23;6.17;;;3.70;99.90;;;;;;5056373;28;20979;-65
2021/12/09 06:14:26;;;;;;;6.73;4.90;;;3.70;99.90;;;;;;5068310;28;20439;-65
2021/12/09 06:16:54;;;;;;;8.93;4.40;;;3.70;99.90;;;;;;5067600;28;20449;-68
2021/12/09 06:19:22;;;;;;;7.57;5.23;;;3.60;99.90;;;;;;5067865;28;20457;-66
2021/12/09 06:21:49;;;;;;;15.10;5.90;;;3.50;99.90;;;;;;5066900;28;20508;-66
2021/12/09 06:24:18;;;;;;;9.13;4.80;;;3.60;99.90;;;;;;5066836;28;20458;-63
2021/12/09 06:26:45;;;;;;;9.97;5.73;;;3.50;99.90;;;;;;5068638;28;20508;-65
2021/12/09 06:29:12;;;;;;;8.10;5.03;;;3.50;99.90;;;;;;5069358;28;20759;-67
2021/12/09 06:31:39;;;;;;;10.73;5.07;;;3.50;99.90;;;;;;5070095;28;20977;-67
2021/12/09 06:34:06;;;;;;;13.97;6.10;;;3.60;99.90;;;;;;5069869;28;20802;-63
2021/12/09 06:36:34;;;;;;;8.00;5.27;;;3.60;99.90;;;;;;5068982;28;20453;-65
2021/12/09 06:39:01;;;;;;;13.10;5.60;;;3.60;99.90;;;;;;5069112;28;20818;-65
2021/12/09 06:41:28;;;;;;;10.27;5.73;;;3.70;99.90;;;;;;5069144;28;20464;-64
2021/12/09 06:43:56;;;;;;;11.93;5.13;;;3.70;99.90;;;;;;5068388;28;20455;-65
2021/12/09 06:46:23;;;;;;;8.77;4.43;;;3.70;99.90;;;;;;5067592;28;20457;-65
2021/12/09 06:48:50;;;;;;;8.73;4.47;;;3.70;99.90;;;;;;5068249;28;20505;-60
2021/12/09 06:51:17;;;;;;;10.13;5.57;;;3.70;99.90;;;;;;5068703;28;20475;-63
2021/12/09 06:53:45;;;;;;;11.53;5.50;;;3.70;99.90;;;;;;5068768;28;20456;-63
2021/12/09 06:56:12;;;;;;;9.47;4.80;;;3.60;99.90;;;;;;5068649;28;20864;-63
2021/12/09 06:58:39;;;;;;;14.67;5.23;;;3.60;99.90;;;;;;5068319;28;20450;-63
2021/12/09 07:01:07;;;;;;;11.67;6.13;;;3.50;99.90;;;;;;5068614;28;20532;-65
2021/12/09 07:03:34;;;;;;;10.07;4.83;;;3.50;99.90;;;;;;5068513;28;20575;-64
2021/12/09 07:06:06;;;;;;;10.10;5.67;;;3.50;99.90;;;;;;5068740;28;20451;-64
2021/12/09 07:08:35;;;;;;;12.70;5.00;;;3.50;99.90;;;;;;5068475;28;20453;-63
2021/12/09 07:11:04;;;;;;;13.00;5.57;;;3.50;99.90;;;;;;5068439;28;20470;-65
2021/12/09 07:13:31;;;;;;;9.53;5.07;;;3.50;99.90;;;;;;5068499;28;20947;-64
2021/12/09 07:15:58;;;;;;;10.40;5.77;;;3.50;99.90;;;;;;5068292;28;20481;-63
2021/12/09 07:18:25;;;;;;;11.70;5.50;;;3.50;99.90;;;;;;5068406;28;21324;-63
2021/12/09 07:20:52;;;;;;;6.40;4.90;;;3.50;99.90;;;;;;5068260;28;20465;-63
2021/12/09 07:23:19;;;;;;;12.27;5.50;;;3.50;99.90;;;;;;5067507;28;20482;-63
2021/12/09 07:25:46;;;;;;;9.27;4.93;;;3.60;99.90;;;;;;5068284;28;20448;-64
2021/12/09 07:28:14;;;;;;;7.53;5.37;;;3.60;99.90;;;;;;5067816;28;20457;-64
2021/12/09 07:30:42;;;;;;;7.10;4.80;;;3.60;99.90;;;;;;5067805;28;20831;-63
2021/12/09 07:33:09;;;;;;;12.10;5.17;;;3.60;99.90;;;;;;5067897;28;20443;-66
2021/12/09 07:35:36;;;;;;;9.60;4.93;;;3.70;99.90;;;;;;5068057;28;20454;-64
2021/12/09 07:38:05;;;;;;;8.77;5.80;;;3.70;99.90;;;;;;5067840;28;20462;-65
2021/12/09 07:40:32;;;;;;;7.40;5.30;;;3.70;99.90;;;;;;5067903;28;20466;-65
2021/12/09 07:43:00;;;;;;;7.20;5.63;;;3.80;99.90;;;;;;5067954;28;20503;-67
2021/12/09 07:45:28;;;;;;;7.40;4.70;;;3.80;99.90;;;;;;5067747;28;20446;-65
2021/12/09 07:47:55;;;;;;;7.30;5.20;;;3.90;99.90;;;;;;5067501;28;20944;-66
2021/12/09 07:50:24;;;;;;;8.93;5.90;;;3.90;99.90;;;;;;5067892;28;20467;-67
2021/12/09 07:52:52;;;;;;;11.53;5.27;;;3.90;99.90;;;;;;5067718;28;20482;-65
2021/12/09 07:55:21;;;;;;;7.90;4.70;;;4.00;99.90;;;;;;5067646;28;20454;-67
2021/12/09 07:57:48;;;;;;;7.10;4.73;;;4.00;99.90;;;;;;5067164;28;20984;-66
2021/12/09 08:00:20;;;;;;;8.97;4.43;;;4.10;99.90;;;;;;5067773;28;20512;-65
2021/12/09 08:02:50;;;;;;;9.70;5.60;;;4.10;99.90;;;;;;5068063;28;20869;-66
2021/12/09 08:05:18;;;;;;;8.97;5.13;;;4.10;99.90;;;;;;5068536;28;20446;-68
2021/12/09 08:07:46;;;;;;;7.33;4.70;;;4.10;99.90;;;;;;5067648;28;20457;-65
2021/12/09 08:10:16;;;;;;;8.90;5.27;;;4.10;99.90;;;;;;5067498;28;20468;-65
2021/12/09 08:12:43;;;;;;;9.63;4.93;;;4.10;99.90;;;;;;5067659;28;20824;-65
2021/12/09 08:15:12;;;;;;;9.30;5.07;;;4.20;99.90;;;;;;5067823;28;21221;-67
2021/12/09 08:17:58;;;;;;;11.13;5.30;;;4.20;99.90;;;;;;5066851;28;20887;-67
2021/12/09 08:20:27;;;;;;;10.00;6.13;;;4.40;99.90;;;;;;5067547;28;20480;-66
2021/12/09 08:22:54;;;;;;;12.60;5.00;;;4.30;99.90;;;;;;5065725;28;20494;-67
2021/12/09 08:25:23;;;;;;;7.30;4.27;;;4.40;99.90;;;;;;5067543;28;20500;-66
2021/12/09 08:27:50;;;;;;;8.37;4.90;;;4.40;99.90;;;;;;5067247;28;20551;-66
2021/12/09 08:30:19;;;;;;;10.10;4.80;;;4.50;99.90;;;;;;5067550;28;20977;-67
2021/12/09 08:32:46;;;;;;;9.90;5.70;;;4.60;99.90;;;;;;5067948;28;20450;-67
2021/12/09 08:35:15;;;;;;;8.00;5.00;;;4.60;99.90;;;;;;5069066;28;20497;-67
2021/12/09 08:37:45;;;;;;;8.30;5.87;;;4.70;99.90;;;;;;5071715;28;20461;-67
2021/12/09 08:40:14;;;;;;;10.63;6.17;;;4.70;99.90;;;;;;5071993;28;20517;-67
2021/12/09 08:42:41;;;;;;;7.23;6.00;;;4.80;99.90;;;;;;5071704;28;21039;-67
2021/12/09 08:45:10;;;;;;;7.90;6.40;;;4.80;99.90;;;;;;5071821;28;20457;-67
2021/12/09 08:47:37;;;;;;;8.23;5.77;;;4.80;99.90;;;;;;5071462;28;20630;-66
2021/12/09 08:50:07;;;;;;;11.37;5.53;;;4.90;99.90;;;;;;5071398;28;21002;-66
2021/12/09 08:52:34;;;;;;;11.97;6.00;;;4.90;99.90;;;;;;5071712;28;20439;-67
2021/12/09 08:55:03;;;;;;;8.90;5.93;;;5.00;99.90;;;;;;5071587;28;20977;-66
2021/12/09 08:57:32;;;;;;;12.50;5.40;;;5.10;99.90;;;;;;5070409;28;20538;-67
2021/12/09 08:59:59;;;;;;;7.10;5.70;;;5.10;99.90;;;;;;5071181;28;20532;-66
2021/12/09 09:02:26;;;;;;;9.90;5.60;;;5.20;99.90;;;;;;5070454;28;20475;-67
2021/12/09 09:04:53;;;;;;;7.40;5.73;;;5.30;99.90;;;;;;5071190;28;20470;-66
2021/12/09 09:07:20;;;;;;;13.30;5.70;;;5.30;99.90;;;;;;5070993;28;20446;-66
2021/12/09 09:09:47;;;;;;;7.83;6.73;;;5.40;99.90;;;;;;5070828;28;21014;-66
2021/12/09 09:12:16;;;;;;;7.40;5.40;;;5.40;99.90;;;;;;5070816;28;21254;-67
2021/12/09 09:14:43;;;;;;;11.00;6.73;;;5.40;99.90;;;;;;5070946;28;20512;-65
2021/12/09 09:17:11;;;;;;;10.10;6.30;;;5.40;99.90;;;;;;5070525;28;20477;-68
2021/12/09 09:19:38;;;;;;;7.20;5.97;;;5.40;99.90;;;;;;5070692;28;20447;-68
2021/12/09 09:22:05;;;;;;;10.50;5.80;;;5.40;99.90;;;;;;5070543;28;20545;-67
2021/12/09 09:24:33;;;;;;;12.30;6.40;;;5.40;99.90;;;;;;5070764;28;20515;-67
2021/12/09 09:27:00;;;;;;;8.20;5.53;;;5.50;99.90;;;;;;5070122;28;20445;-67
2021/12/09 09:29:28;;;;;;;7.00;5.73;;;5.60;99.90;;;;;;5070494;28;20454;-67
2021/12/09 09:31:56;;;;;;;10.47;6.80;;;5.60;99.90;;;;;;5070293;28;20454;-66
2021/12/09 09:34:23;;;;;;;7.27;5.30;;;5.70;99.90;;;;;;5070374;28;20459;-66
2021/12/09 09:36:50;;;;;;;6.67;6.00;;;5.70;99.90;;;;;;5070280;28;20538;-65
2021/12/09 09:39:22;;;;;;;7.33;5.57;;;5.70;99.90;;;;;;5070345;28;20979;-66
2021/12/09 09:41:56;;;;;;;9.67;6.30;;;5.80;99.90;;;;;;5070237;28;20487;-67
2021/12/09 09:44:29;;;;;;;10.70;6.13;;;5.80;99.90;;;;;;5070219;28;20568;-66
2021/12/09 09:46:59;;;;;;;7.20;5.40;;;5.80;99.90;;;;;;5069484;28;20498;-67
2021/12/09 09:49:26;;;;;;;11.57;6.73;;;5.80;99.90;;;;;;5070230;28;20466;-67
2021/12/09 09:51:53;;;;;;;9.07;5.53;;;5.80;99.90;;;;;;5070016;28;20448;-68
2021/12/09 09:54:20;;;;;;;9.50;6.10;;;5.80;99.90;;;;;;5069960;28;20449;-67
2021/12/09 09:56:48;;;;;;;8.07;6.30;;;5.80;99.90;;;;;;5069960;28;20461;-68
2021/12/09 09:59:17;;;;;;;8.37;5.37;;;5.70;99.90;;;;;;5070079;28;20535;-66
2021/12/09 10:01:45;;;;;;;9.40;5.50;;;5.70;99.90;;;;;;5069609;28;20566;-67
2021/12/09 10:04:14;;;;;;;6.67;5.30;;;5.80;99.90;;;;;;5069681;28;20489;-67
2021/12/09 10:06:44;;;;;;;5.60;5.10;;;5.80;99.90;;;;;;5069378;28;20451;-66
2021/12/09 10:09:12;;;;;;;7.73;5.70;;;5.70;99.90;;;;;;5069805;28;20450;-67
2021/12/09 10:11:39;;;;;;;8.23;5.27;;;5.60;99.90;;;;;;5069737;28;20467;-67
2021/12/09 10:14:12;;;;;;;8.30;5.83;;;5.60;99.90;;;;;;5069886;28;20539;-66
2021/12/09 10:16:41;;;;;;;7.50;5.60;;;5.70;99.90;;;;;;5069598;28;20451;-66
2021/12/09 10:19:23;;;;;;;8.50;4.60;;;5.70;99.90;;;;;;5069788;28;20447;-66
2021/12/09 10:21:50;;;;;;;7.30;5.30;;;5.70;99.90;;;;;;5069799;28;20463;-66
2021/12/09 10:24:17;;;;;;;6.93;5.90;;;5.80;99.90;;;;;;5069463;28;21012;-67
2021/12/09 10:26:46;;;;;;;8.27;5.23;;;5.80;99.90;;;;;;5069284;28;20527;-66
2021/12/09 10:29:19;;;;;;;7.87;5.10;;;5.80;99.90;;;;;;5069330;28;20941;-66
2021/12/09 10:31:50;;;;;;;6.70;5.00;;;5.80;99.90;;;;;;5069343;28;20448;-66
2021/12/09 10:34:32;;;;;;;9.60;6.73;;;5.90;99.90;;;;;;5069536;28;20845;-66
2021/12/09 10:37:07;;;;;;;8.33;5.17;;;6.00;99.90;;;;;;5069561;28;20474;-66
2021/12/09 10:39:41;;;;;;;8.60;5.33;;;6.00;99.90;;;;;;5069756;28;20451;-66
2021/12/09 10:42:12;;;;;;;8.00;6.13;;;6.10;99.90;;;;;;5070906;28;20447;-67
2021/12/09 10:44:51;;;;;;;10.23;6.57;;;6.20;99.90;;;;;;5070293;28;20490;-67
2021/12/09 10:47:34;;;;;;;11.03;6.53;;;6.20;99.90;;;;;;5070028;28;20474;-67
2021/12/09 10:50:08;;;;;;;10.23;7.33;;;6.20;99.90;;;;;;5068795;28;20989;-66
2021/12/09 10:52:40;;;;;;;7.50;6.70;;;6.20;99.90;;;;;;5068724;28;20535;-66
2021/12/09 10:55:23;;;;;;;8.60;6.93;;;6.20;99.90;;;;;;5068914;28;21219;-66
2021/12/09 10:58:03;;;;;;;8.47;7.27;;;6.10;99.90;;;;;;5068185;28;21167;-66
2021/12/09 11:00:36;;;;;;;7.83;6.67;;;6.10;99.90;;;;;;5068584;28;21040;-67
2021/12/09 11:03:09;;;;;;;8.77;6.70;;;6.20;99.90;;;;;;5069250;28;20486;-66
2021/12/09 11:05:41;;;;;;;10.67;7.53;;;6.20;99.90;;;;;;5068887;28;20453;-66
2021/12/09 11:08:28;;;;;;;9.30;8.07;;;6.20;99.90;;;;;;5068394;28;20807;-66
2021/12/09 11:11:02;;;;;;;11.07;9.00;;;6.20;99.90;;;;;;5068470;28;20474;-66
2021/12/09 11:13:40;;;;;;;12.43;8.80;;;6.20;99.90;;;;;;5068642;28;20453;-67
2021/12/09 11:16:08;;;;;;;11.97;8.97;;;6.30;99.90;;;;;;5068643;28;20541;-66
2021/12/09 11:18:39;;;;;;;10.83;7.73;;;6.40;99.90;;;;;;5068055;28;20523;-65
2021/12/09 11:21:11;;;;;;;9.40;7.80;;;6.50;99.90;;;;;;5068442;28;20486;-66
2021/12/09 11:23:42;;;;;;;10.90;8.73;;;6.60;99.90;;;;;;5067961;28;20989;-66
2021/12/09 11:26:54;;;;;;;13.30;9.40;;;6.60;99.90;;;;;;5068389;28;20681;-66
2021/12/09 11:29:25;;;;;;;12.50;9.27;;;6.70;99.90;;;;;;5068119;28;20466;-66
2021/12/09 11:32:00;;;;;;;11.43;8.60;;;6.70;99.90;;;;;;5068195;28;20442;-66
2021/12/09 11:34:39;;;;;;;11.20;8.17;;;6.60;99.90;;;;;;5068654;28;20442;-65
2021/12/09 11:37:21;;;;;;;11.93;8.90;;;6.70;99.90;;;;;;5068098;28;20458;-66
2021/12/09 11:39:48;;;;;;;11.13;8.90;;;6.70;99.90;;;;;;5067955;28;20463;-66
2021/12/09 11:42:25;;;;;;;11.00;8.60;;;6.70;99.90;;;;;;5067858;28;20493;-65
2021/12/09 11:44:52;;;;;;;11.83;7.50;;;6.70;99.90;;;;;;5067970;28;20479;-66
2021/12/09 11:47:19;;;;;;;9.50;7.93;;;6.70;99.90;;;;;;5067665;28;20452;-66
2021/12/09 11:49:47;;;;;;;11.03;8.47;;;6.70;99.90;;;;;;5067343;28;20555;-66
2021/12/09 11:52:17;;;;;;;10.90;7.23;;;6.70;99.90;;;;;;5067855;28;20447;-65
2021/12/09 11:54:50;;;;;;;11.33;6.33;;;6.50;99.90;;;;;;5066949;28;20452;-65
2021/12/09 11:57:34;;;;;;;9.13;7.00;;;6.50;99.90;;;;;;5067608;28;20443;-66
2021/12/09 12:12:42;;;;;;;11.83;8.67;;;6.80;99.90;;;;;;5030739;28;20435;-64
2021/12/09 12:15:38;;;;;;;12.70;9.50;;;6.90;99.90;;;;;;5067536;28;20501;-66
2021/12/09 12:20:59;;;;;;;14.73;10.33;;;6.70;99.90;;;;;;5053864;28;20525;-64
2021/12/09 12:23:36;;;;;;;13.37;9.53;;;6.40;99.90;;;;;;5067658;28;20497;-63
2021/12/09 12:29:24;;;;;;;14.03;8.70;;;6.30;99.90;;;;;;5068431;28;21011;-66
2021/12/09 12:32:20;;;;;;;11.93;9.80;;;6.30;99.90;;;;;;5067041;28;20527;-63
2021/12/09 12:37:56;;;;;;;12.27;8.90;;;5.90;99.90;;;;;;5066901;28;20420;-64
2021/12/09 12:40:27;;;;;;;10.23;8.63;;;5.90;99.90;;;;;;5067121;28;20483;-62
2021/12/09 12:43:01;;;;;;;12.67;8.43;;;5.90;99.90;;;;;;5066335;28;21039;-63
2021/12/09 12:45:50;;;;;;;11.90;9.03;;;5.90;99.90;;;;;;5067252;28;20937;-63
2021/12/09 12:48:50;;;;;;;9.30;7.83;;;5.90;99.90;;;;;;5066875;28;20538;-62
2021/12/09 12:51:22;;;;;;;13.63;8.07;;;6.00;99.90;;;;;;5061860;28;20460;-62
2021/12/09 12:53:52;;;;;;;7.20;6.50;;;6.00;99.90;;;;;;5059074;28;20466;-63
2021/12/09 12:56:23;;;;;;;13.17;7.70;;;6.00;99.90;;;;;;5066144;28;20471;-63
2021/12/09 12:59:21;;;;;;;13.50;6.93;;;6.00;99.90;;;;;;5066881;28;20444;-65
2021/12/09 13:02:59;;;;;;;9.90;6.70;;;5.90;99.90;;;;;;5056411;28;20891;-64
2021/12/09 13:05:47;;;;;;;13.37;5.90;;;5.80;99.90;;;;;;5052535;28;20529;-63
2021/12/09 13:08:40;;;;;;;7.93;6.50;;;5.80;99.90;;;;;;5066552;28;20443;-63
2021/12/09 13:11:15;;;;;;;7.83;6.20;;;5.70;99.90;;;;;;5051392;28;20565;-63
2021/12/09 13:13:50;;;;;;;13.60;7.00;;;5.60;99.90;;;;;;5066723;28;20465;-65
2021/12/09 13:16:24;;;;;;;8.87;5.20;;;5.40;99.90;;;;;;5065875;28;20443;-62
2021/12/09 13:19:08;;;;;;;10.10;6.13;;;5.40;99.90;;;;;;5054357;28;20433;-63
2021/12/09 13:21:44;;;;;;;13.80;6.73;;;5.30;99.90;;;;;;5065717;28;21249;-66
2021/12/09 13:24:50;;;;;;;11.87;6.57;;;5.30;99.90;;;;;;5052914;28;20486;-67
2021/12/09 13:33:49;;;;;;;11.17;5.00;;;5.10;99.90;;;;;;5027927;28;20448;-65